Time;durP1;ratioP1;P1;durP2;ratioP2;P2;SDS_P1;SDS_P2;PMS_P1;PMS_P2;Temp;Humidity;BMP_temperature;BMP_pressure;BME280_temperature;BME280_humidity;BME280_pressure;Samples;Min_cycle;Max_cycle;Signal;HPM_P1;HPM_P2
2021/12/01 05:00:10;;;;;;;;;0.00;0.00;;;;;11.10;73.96;99910.66;6134890;22;46493;-85
2021/12/01 05:02:35;;;;;;;;;0.00;0.00;;;;;10.89;77.68;99892.28;5029615;28;45521;-83
2021/12/01 05:05:01;;;;;;;;;0.00;0.00;;;;;10.90;80.52;99885.16;5018541;28;45550;-84
2021/12/01 05:07:26;;;;;;;;;0.00;0.00;;;;;10.88;75.07;99884.38;5018991;28;45367;-86
2021/12/01 05:09:51;;;;;;;;;0.33;0.33;;;;;10.93;74.51;99880.50;5034291;28;45914;-85
2021/12/01 05:12:17;;;;;;;;;0.00;0.00;;;;;10.88;74.46;99858.56;5015851;28;46356;-86
2021/12/01 05:14:42;;;;;;;;;0.00;0.00;;;;;10.90;74.48;99859.34;5018089;28;45460;-85
2021/12/01 05:17:07;;;;;;;;;1.67;1.00;;;;;11.05;74.62;99886.03;5018709;28;45607;-85
2021/12/01 05:19:34;;;;;;;;;0.00;0.00;;;;;10.93;74.36;99864.50;5018312;28;46549;-84
2021/12/01 05:22:00;;;;;;;;;0.00;0.00;;;;;10.88;74.68;99849.72;5006494;28;45921;-85
2021/12/01 05:24:25;;;;;;;;;0.00;0.00;;;;;10.90;74.47;99859.34;4997532;28;45345;-91
2021/12/01 05:26:51;;;;;;;;;0.00;0.00;;;;;10.58;74.35;99818.59;5030074;28;45613;-88
2021/12/01 05:29:16;;;;;;;;;1.00;1.00;;;;;10.81;74.71;99833.22;5018809;28;45421;-90
2021/12/01 05:31:42;;;;;;;;;0.00;0.00;;;;;11.05;73.80;99872.69;5017432;28;45465;-89
2021/12/01 05:34:07;;;;;;;;;0.00;0.00;;;;;10.84;74.05;99837.50;5017542;28;45335;-89
2021/12/01 05:36:33;;;;;;;;;0.00;0.00;;;;;11.07;74.04;99863.66;5019039;28;45317;-88
2021/12/01 05:38:58;;;;;;;;;0.00;0.00;;;;;10.67;74.08;99788.72;5018262;28;45922;-89
2021/12/01 05:41:24;;;;;;;;;0.00;0.00;;;;;10.76;74.30;99813.97;5018339;28;45452;-91
2021/12/01 05:43:49;;;;;;;;;0.00;0.00;;;;;10.54;74.26;99763.78;5017749;28;45487;-90
2021/12/01 05:46:15;;;;;;;;;0.00;0.00;;;;;10.97;74.20;99831.34;5019153;28;45479;-90
2021/12/01 05:48:40;;;;;;;;;0.00;0.00;;;;;10.72;74.14;99786.69;5017640;28;47036;-90
2021/12/01 05:51:06;;;;;;;;;0.00;0.00;;;;;10.80;74.04;99777.34;5027295;28;45492;-89
2021/12/01 05:53:31;;;;;;;;;0.00;0.00;;;;;10.85;74.22;99769.94;5019964;28;45668;-88
2021/12/01 05:55:57;;;;;;;;;0.00;0.00;;;;;10.90;73.70;99783.84;5034929;28;45480;-91
2021/12/01 05:58:33;;;;;;;;;0.00;0.00;;;;;11.07;73.83;99793.47;5019503;28;48512;-89
2021/12/01 06:00:59;;;;;;;;;1.00;0.00;;;;;11.05;73.58;99780.25;5016584;28;45897;-87
2021/12/01 06:03:24;;;;;;;;;0.00;0.00;;;;;10.67;73.69;99716.78;5018487;28;45223;-85
2021/12/01 06:05:50;;;;;;;;;0.00;0.00;;;;;10.47;73.73;99672.72;5018445;28;45404;-84
2021/12/01 06:08:15;;;;;;;;;0.00;0.00;;;;;10.74;74.00;99712.78;5033461;28;45494;-85
2021/12/01 06:10:41;;;;;;;;;0.00;0.00;;;;;10.78;73.78;99709.00;5023193;28;45361;-83
2021/12/01 06:13:07;;;;;;;;;0.00;0.00;;;;;10.78;73.61;99686.81;5033484;28;45279;-86
2021/12/01 06:15:33;;;;;;;;;0.00;0.00;;;;;10.73;73.57;99684.44;5025859;28;45462;-85
2021/12/01 06:17:58;;;;;;;;;0.00;0.00;;;;;10.66;73.99;99660.94;5014253;28;45988;-85
2021/12/01 06:20:25;;;;;;;;;0.00;0.00;;;;;10.54;73.66;99654.56;5024757;28;45610;-91
2021/12/01 06:22:52;;;;;;;;;0.00;0.00;;;;;11.34;73.92;99773.09;5015778;28;45387;-83
2021/12/01 06:25:18;;;;;;;;;0.00;0.00;;;;;10.94;73.92;99706.25;5032963;28;45569;-84
2021/12/01 06:27:43;;;;;;;;;0.00;0.00;;;;;11.02;73.83;99707.56;5016896;28;45437;-83
2021/12/01 06:30:11;;;;;;;;;0.33;0.33;;;;;10.78;74.12;99652.16;5024708;28;45599;-83
2021/12/01 06:32:37;;;;;;;;;0.00;0.00;;;;;10.80;73.52;99647.59;5019299;28;45372;-83
2021/12/01 06:35:03;;;;;;;;;0.00;0.00;;;;;11.08;73.47;99681.38;5022765;28;45339;-84
2021/12/01 06:37:28;;;;;;;;;2.00;1.00;;;;;11.17;73.59;99694.16;5034624;28;46240;-88
2021/12/01 06:39:54;;;;;;;;;0.00;0.00;;;;;11.20;73.54;99682.44;5017694;28;45443;-85
2021/12/01 06:42:20;;;;;;;;;0.00;0.00;;;;;11.65;73.50;99748.97;5016198;28;45514;-82
2021/12/01 06:44:46;;;;;;;;;0.00;0.00;;;;;11.73;73.29;99741.28;5029527;28;45503;-83
2021/12/01 06:47:12;;;;;;;;;0.00;0.00;;;;;11.62;73.37;99734.84;5016783;28;46559;-85
2021/12/01 06:49:38;;;;;;;;;0.00;0.00;;;;;11.41;73.37;99683.72;5017102;28;45422;-84
2021/12/01 06:52:04;;;;;;;;;0.00;0.00;;;;;11.83;73.39;99745.09;5016990;28;45359;-85
2021/12/01 06:54:29;;;;;;;;;0.00;0.00;;;;;11.67;73.42;99707.00;5027238;28;45594;-84
2021/12/01 06:56:54;;;;;;;;;1.33;0.00;;;;;11.54;73.31;99681.13;5034857;28;46687;-86
2021/12/01 06:59:20;;;;;;;;;0.00;0.00;;;;;11.76;73.19;99699.25;5018455;28;45526;-85
2021/12/01 07:01:45;;;;;;;;;0.00;0.00;;;;;12.02;73.57;99728.75;5019747;28;45376;-84
2021/12/01 07:04:13;;;;;;;;;0.00;0.00;;;;;12.01;73.20;99729.69;5021695;28;45595;-83
2021/12/01 07:06:39;;;;;;;;;0.00;0.00;;;;;11.96;73.04;99707.78;5028638;28;45493;-84
2021/12/01 07:09:04;;;;;;;;;0.00;0.00;;;;;11.95;73.22;99711.44;5016715;28;45452;-85
2021/12/01 07:11:29;;;;;;;;;0.00;0.00;;;;;12.06;73.28;99734.75;5018681;28;45499;-87
2021/12/01 07:13:55;;;;;;;;;36.67;31.00;;;;;11.91;73.79;99704.56;5029384;28;45517;-84
2021/12/01 07:16:21;;;;;;;;;0.00;0.00;;;;;12.05;73.94;99715.19;5021756;28;47217;-83
2021/12/01 07:18:46;;;;;;;;;0.00;0.00;;;;;12.04;74.01;99706.34;5014415;28;45517;-84
2021/12/01 07:21:12;;;;;;;;;1.00;0.33;;;;;12.18;73.68;99729.47;5023683;28;45566;-84
2021/12/01 07:23:37;;;;;;;;;0.00;0.00;;;;;12.19;73.64;99717.78;5027020;28;45841;-84
2021/12/01 07:26:04;;;;;;;;;0.00;0.00;;;;;12.14;73.83;99711.91;5020823;28;45416;-83
2021/12/01 07:28:29;;;;;;;;;0.00;0.00;;;;;11.87;73.38;99653.22;5022604;28;45693;-83
2021/12/01 07:30:55;;;;;;;;;0.00;0.00;;;;;12.29;73.55;99728.75;5025118;28;45364;-83
2021/12/01 07:33:20;;;;;;;;;0.00;0.00;;;;;11.75;73.38;99628.16;5030234;28;45222;-83
2021/12/01 07:35:45;;;;;;;;;0.00;0.00;;;;;11.98;73.22;99658.66;5016059;28;46406;-83
2021/12/01 07:38:12;;;;;;;;;0.33;0.00;;;;;12.02;73.08;99665.50;5031459;28;45419;-87
2021/12/01 07:40:38;;;;;;;;;0.00;0.00;;;;;12.36;72.85;99718.47;5040784;28;45337;-85
2021/12/01 07:43:03;;;;;;;;;0.00;0.00;;;;;12.44;72.84;99730.38;5024186;28;45351;-83
2021/12/01 07:45:29;;;;;;;;;0.33;0.33;;;;;12.33;72.82;99705.34;5021119;28;46301;-83
2021/12/01 07:47:54;;;;;;;;;0.00;0.00;;;;;12.54;72.42;99727.94;5031657;28;45376;-83
2021/12/01 07:50:20;;;;;;;;;0.00;0.00;;;;;12.51;72.76;99717.44;5038878;28;45400;-83
2021/12/01 07:52:45;;;;;;;;;0.00;0.00;;;;;12.36;71.75;99697.09;5035361;28;45387;-83
2021/12/01 07:55:10;;;;;;;;;0.00;0.00;;;;;12.23;72.00;99679.25;5026831;28;45497;-83
2021/12/01 07:57:37;;;;;;;;;0.00;0.00;;;;;12.23;72.13;99657.88;5017877;28;45706;-84
2021/12/01 08:00:04;;;;;;;;;0.33;0.00;;;;;11.71;71.71;99570.59;5015102;28;45340;-83
2021/12/01 08:02:29;;;;;;;;;0.33;0.00;;;;;12.34;71.66;99665.16;5019937;28;45416;-84
2021/12/01 08:04:57;;;;;;;;;0.67;0.00;;;;;12.44;71.40;99679.59;5025303;28;45986;-83
2021/12/01 08:07:23;;;;;;;;;0.00;0.00;;;;;12.34;71.41;99673.19;5024602;28;45410;-85
2021/12/01 08:09:48;;;;;;;;;0.00;0.00;;;;;12.22;71.95;99649.94;5027066;28;45506;-84
2021/12/01 08:12:13;;;;;;;;;0.00;0.00;;;;;12.59;71.15;99687.50;5022473;28;45572;-83
2021/12/01 08:14:39;;;;;;;;;0.00;0.00;;;;;12.61;71.33;99698.97;5015773;28;50277;-84
2021/12/01 08:17:04;;;;;;;;;0.33;0.33;;;;;12.53;71.59;99678.13;5016359;28;45489;-85
2021/12/01 08:19:30;;;;;;;;;1.00;0.00;;;;;12.36;71.42;99641.00;5030110;28;45816;-84
2021/12/01 08:21:55;;;;;;;;;0.00;0.00;;;;;12.25;70.73;99620.38;5027341;28;45459;-83
2021/12/01 08:24:21;;;;;;;;;0.00;0.00;;;;;12.67;70.80;99696.72;5023937;28;46350;-83
2021/12/01 08:26:47;;;;;;;;;1.00;0.00;;;;;12.60;70.79;99678.56;5026139;28;45426;-83
2021/12/01 08:29:13;;;;;;;;;0.00;0.00;;;;;12.39;71.02;99648.81;5020420;28;45340;-84
2021/12/01 08:31:39;;;;;;;;;0.00;0.00;;;;;12.72;70.62;99693.72;5018738;28;45529;-85
2021/12/01 08:34:05;;;;;;;;;0.00;0.00;;;;;12.28;70.45;99627.31;5013276;28;45405;-85
2021/12/01 08:36:30;;;;;;;;;0.00;0.00;;;;;12.83;70.47;99701.88;5014159;28;46334;-84
2021/12/01 08:38:56;;;;;;;;;0.00;0.00;;;;;12.88;70.51;99697.03;5021618;28;45405;-84
2021/12/01 08:41:22;;;;;;;;;0.00;0.00;;;;;12.43;70.30;99610.22;5012247;28;45478;-84
2021/12/01 08:43:47;;;;;;;;;0.00;0.00;;;;;12.64;70.79;99639.94;5024381;28;48069;-84
2021/12/01 08:46:13;;;;;;;;;0.00;0.00;;;;;12.87;70.13;99655.19;5011143;28;45480;-85
2021/12/01 08:48:38;;;;;;;;;0.00;0.00;;;;;13.13;69.65;99689.94;5024766;28;45425;-85
2021/12/01 08:51:05;;;;;;;;;0.00;0.00;;;;;12.88;69.75;99656.09;5021885;28;45533;-86
2021/12/01 08:53:33;;;;;;;;;0.00;0.00;;;;;12.86;69.17;99633.94;5025676;28;46296;-85
2021/12/01 08:55:59;;;;;;;;;0.00;0.00;;;;;12.67;69.47;99596.97;5025810;28;45393;-85
2021/12/01 08:58:25;;;;;;;;;31.00;28.00;;;;;12.85;69.12;99630.41;5024593;28;45640;-86
2021/12/01 09:00:50;;;;;;;;;0.00;0.00;;;;;12.88;68.76;99615.97;5026922;28;46632;-85
2021/12/01 09:03:18;;;;;;;;;0.00;0.00;;;;;13.35;69.45;99685.78;5022970;28;46076;-85
2021/12/01 09:05:45;;;;;;;;;0.00;0.00;;;;;13.22;68.90;99659.00;5027938;28;45509;-87
2021/12/01 09:08:11;;;;;;;;;0.67;0.00;;;;;13.10;68.51;99628.66;5026353;28;45466;-86
2021/12/01 09:10:36;;;;;;;;;0.00;0.00;;;;;13.29;68.05;99657.63;5024577;28;45544;-86
2021/12/01 09:13:04;;;;;;;;;0.00;0.00;;;;;13.09;67.95;99625.13;5023694;28;46379;-86
2021/12/01 09:15:29;;;;;;;;;1.00;1.00;;;;;13.33;67.64;99660.94;5025236;28;45587;-88
2021/12/01 09:17:57;;;;;;;;;0.67;0.67;;;;;13.25;67.67;99659.66;5021250;28;45528;-87
2021/12/01 09:20:22;;;;;;;;;1.33;0.00;;;;;13.36;67.37;99674.09;5026460;28;45440;-87
2021/12/01 09:22:48;;;;;;;;;0.00;0.00;;;;;13.17;66.91;99637.94;5020613;28;46590;-87
2021/12/01 09:25:13;;;;;;;;;0.00;0.00;;;;;13.47;66.98;99698.28;5026885;28;45313;-87
2021/12/01 09:27:39;;;;;;;;;2.00;0.00;;;;;13.01;66.97;99623.97;5022051;28;45405;-88
2021/12/01 09:30:05;;;;;;;;;2.33;0.00;;;;;13.32;66.70;99678.81;5025995;28;45631;-88
2021/12/01 09:32:34;;;;;;;;;0.00;0.00;;;;;13.32;67.03;99684.16;5030647;28;46174;-87
2021/12/01 09:35:00;;;;;;;;;0.00;0.00;;;;;13.02;66.36;99637.22;5026045;28;45433;-89
2021/12/01 09:37:26;;;;;;;;;1.00;0.00;;;;;13.36;66.48;99685.66;5027343;28;45354;-87
2021/12/01 09:39:52;;;;;;;;;2.00;0.00;;;;;12.72;65.92;99572.56;5033661;28;45507;-88
2021/12/01 09:42:17;;;;;;;;;0.00;0.00;;;;;13.57;65.36;99722.56;5032712;28;45471;-87
2021/12/01 09:44:43;;;;;;;;;2.00;2.00;;;;;13.53;64.98;99705.84;5032311;28;45446;-88
2021/12/01 09:47:08;;;;;;;;;1.00;1.00;;;;;13.32;65.08;99673.47;5032180;28;45352;-87
2021/12/01 09:49:34;;;;;;;;;2.33;1.00;;;;;13.36;65.36;99674.09;5020332;28;45347;-88
2021/12/01 09:52:00;;;;;;;;;1.67;1.00;;;;;13.64;64.93;99737.19;5027186;28;46030;-89
2021/12/01 09:54:26;;;;;;;;;1.00;1.00;;;;;13.42;64.92;99685.22;5023668;28;45417;-89
2021/12/01 09:56:51;;;;;;;;;0.67;0.00;;;;;13.03;64.93;99619.34;5020529;28;45462;-89
2021/12/01 09:59:16;;;;;;;;;1.67;1.00;;;;;13.36;65.05;99672.28;5017951;28;45642;-89
2021/12/01 10:01:42;;;;;;;;;0.00;0.00;;;;;13.35;64.75;99667.91;5027478;28;48300;-87
2021/12/01 10:04:08;;;;;;;;;0.00;0.00;;;;;13.26;64.77;99661.34;5018975;28;45467;-89
2021/12/01 10:06:34;;;;;;;;;0.00;0.00;;;;;13.51;65.48;99705.97;5023767;28;45534;-89
2021/12/01 10:09:07;;;;;;;;;0.33;0.00;;;;;13.56;64.81;99720.84;5027785;28;45454;-91
2021/12/01 10:11:38;;;;;;;;;3.33;3.33;;;;;13.53;64.32;99724.56;5027969;28;45740;-89
2021/12/01 10:14:07;;;;;;;;;4.00;4.00;;;;;13.18;64.72;99689.63;5022447;28;45381;-89
2021/12/01 10:16:37;;;;;;;;;6.33;5.00;;;;;13.08;65.08;99676.03;5023460;28;45397;-89
2021/12/01 10:19:07;;;;;;;;;3.67;3.67;;;;;12.90;65.18;99662.19;5030809;28;45676;-89
2021/12/01 10:21:36;;;;;;;;;0.00;0.00;;;;;13.18;65.26;99708.34;5024426;28;45751;-88
2021/12/01 10:24:08;;;;;;;;;6.00;4.00;;;;;13.21;65.65;99711.69;5025429;28;45457;-88
2021/12/01 10:26:44;;;;;;;;;10.00;10.00;;;;;12.88;66.05;99672.13;5026972;28;45409;-88
2021/12/01 10:29:13;;;;;;;;;17.67;14.33;;;;;13.01;66.10;99696.19;5023448;28;45647;-89
2021/12/01 10:31:39;;;;;;;;;2.33;1.67;;;;;13.16;66.45;99732.56;5020615;28;47041;-91
2021/12/01 10:34:32;;;;;;;;;0.67;0.67;;;;;13.08;67.33;99740.25;5027078;28;45346;-89
2021/12/01 10:37:31;;;;;;;;;2.33;2.33;;;;;13.08;67.16;99732.22;5016951;28;45313;-89
2021/12/01 10:40:12;;;;;;;;;7.67;7.67;;;;;13.10;67.31;99732.97;4936920;28;45416;-87
2021/12/01 10:43:04;;;;;;;;;3.33;1.00;;;;;12.83;66.88;99687.63;4920231;28;47592;-88
2021/12/01 10:45:45;;;;;;;;;2.00;1.67;;;;;12.57;66.46;99639.53;4923237;28;45448;-88
2021/12/01 10:48:19;;;;;;;;;8.00;6.33;;;;;12.74;66.40;99672.25;4944709;28;45404;-87
2021/12/01 10:50:44;;;;;;;;;21.33;17.67;;;;;12.59;66.45;99642.91;4943401;28;45647;-88
2021/12/01 10:53:13;;;;;;;;;6.00;5.00;;;;;12.97;66.05;99690.19;4929517;28;48979;-89
2021/12/01 10:55:45;;;;;;;;;3.67;2.67;;;;;13.02;66.40;99671.16;4946644;28;45420;-88
2021/12/01 10:58:10;;;;;;;;;17.33;13.00;;;;;13.04;66.63;99661.16;4935091;28;45650;-87
2021/12/01 11:00:41;;;;;;;;;3.67;2.67;;;;;13.18;65.88;99668.22;4925001;28;45587;-88
2021/12/01 11:03:19;;;;;;;;;2.00;1.00;;;;;12.92;65.58;99609.41;4940425;28;46578;-87
2021/12/01 11:05:50;;;;;;;;;2.00;1.00;;;;;13.65;65.57;99731.75;4923456;28;46068;-89
2021/12/01 11:08:25;;;;;;;;;1.33;1.33;;;;;13.69;65.05;99732.34;4954355;28;45668;-87
2021/12/01 11:10:54;;;;;;;;;1.67;1.67;;;;;13.75;65.07;99729.25;4926701;28;45393;-88
2021/12/01 11:13:21;;;;;;;;;2.00;2.00;;;;;13.78;64.76;99720.97;4950591;28;45584;-88
2021/12/01 11:15:57;;;;;;;;;2.33;1.00;;;;;13.75;64.34;99720.38;4983420;28;45656;-88
2021/12/01 11:18:25;;;;;;;;;2.67;2.67;;;;;12.87;64.30;99576.81;5031467;28;45470;-87
2021/12/01 11:20:57;;;;;;;;;1.00;1.00;;;;;13.18;64.16;99625.41;5023887;28;45338;-89
2021/12/01 11:23:34;;;;;;;;;3.00;3.00;;;;;13.68;64.17;99706.56;5027210;28;47206;-88
2021/12/01 11:26:09;;;;;;;;;3.00;1.33;;;;;13.35;63.95;99659.88;5026462;28;46660;-88
2021/12/01 11:28:47;;;;;;;;;2.00;2.00;;;;;13.76;63.87;99719.38;5021803;28;45624;-87
2021/12/01 11:31:19;;;;;;;;;0.67;0.67;;;;;13.48;63.45;99663.34;5031116;28;45619;-88
2021/12/01 11:33:46;;;;;;;;;1.00;1.00;;;;;13.34;63.59;99650.13;5036805;28;47768;-88
2021/12/01 11:36:18;;;;;;;;;2.00;0.33;;;;;13.82;63.63;99713.59;5034405;28;45602;-88
2021/12/01 11:38:49;;;;;;;;;1.00;1.00;;;;;13.08;63.64;99582.41;5017526;28;45626;-87
2021/12/01 11:41:15;;;;;;;;;2.00;0.00;;;;;13.65;63.97;99659.44;5026866;28;45650;-87
2021/12/01 11:43:40;;;;;;;;;2.33;0.67;;;;;13.12;63.09;99554.47;5028879;28;45419;-88
2021/12/01 11:46:07;;;;;;;;;0.00;0.00;;;;;13.87;63.23;99682.81;5025181;28;45534;-86
2021/12/01 11:48:38;;;;;;;;;2.00;1.00;;;;;14.05;62.39;99707.38;5026424;28;45548;-86
2021/12/01 11:51:24;;;;;;;;;2.00;2.00;;;;;14.03;62.34;99706.63;5037306;28;45371;-87
2021/12/01 11:53:51;;;;;;;;;1.00;1.00;;;;;14.00;61.95;99706.88;5030423;28;45388;-86
2021/12/01 11:56:19;;;;;;;;;1.00;1.00;;;;;13.98;62.52;99711.47;5033218;28;45596;-89
2021/12/01 11:59:00;;;;;;;;;1.00;1.00;;;;;13.98;61.27;99706.13;5030072;28;45433;-88
2021/12/01 12:01:25;;;;;;;;;3.33;2.33;;;;;14.00;61.87;99701.50;5027826;28;45551;-85
2021/12/01 12:03:54;;;;;;;;;2.00;2.00;;;;;13.96;61.12;99702.69;5021733;28;45452;-85
2021/12/01 12:06:28;;;;;;;;;2.00;2.00;;;;;13.88;61.60;99686.31;5023568;28;45503;-87
2021/12/01 12:08:53;;;;;;;;;4.67;4.00;;;;;14.02;61.45;99694.19;5031247;28;45470;-86
2021/12/01 12:11:37;;;;;;;;;1.33;1.33;;;;;14.10;62.03;99691.81;5027161;28;45342;-84
2021/12/01 12:14:12;;;;;;;;;3.00;1.00;;;;;14.03;61.34;99660.22;5027131;28;45886;-84
2021/12/01 12:16:39;;;;;;;;;1.67;1.00;;;;;13.81;61.12;99594.84;5029158;28;45415;-83
2021/12/01 12:19:06;;;;;;;;;1.33;1.00;;;;;14.53;59.80;99699.25;5033378;28;45480;-83
2021/12/01 12:21:51;;;;;;;;;1.00;1.00;;;;;14.41;59.18;99659.97;5027025;28;45317;-83
2021/12/01 12:24:20;;;;;;;;;1.67;1.67;;;;;14.31;59.12;99635.72;5024927;28;46096;-83
2021/12/01 12:26:48;;;;;;;;;0.67;0.67;;;;;14.65;59.41;99685.91;5034564;28;45550;-84
2021/12/01 12:29:16;;;;;;;;;2.00;2.00;;;;;14.67;59.11;99694.69;5032281;28;45542;-84
2021/12/01 12:31:44;;;;;;;;;2.00;2.00;;;;;14.69;59.29;99692.72;5027218;28;45565;-84
2021/12/01 12:34:20;;;;;;;;;3.00;2.00;;;;;14.35;59.43;99639.00;5026258;28;46199;-84
2021/12/01 12:36:49;;;;;;;;;1.67;1.00;;;;;14.63;59.57;99690.50;5021234;28;45421;-84
2021/12/01 12:39:23;;;;;;;;;1.00;1.00;;;;;14.32;60.25;99641.91;5030677;28;45356;-84
2021/12/01 12:41:55;;;;;;;;;2.67;1.00;;;;;14.56;60.58;99687.44;5025477;28;45461;-83
2021/12/01 12:44:33;;;;;;;;;0.00;0.00;;;;;14.34;60.44;99664.09;5024782;28;47985;-87
2021/12/01 12:47:10;;;;;;;;;2.00;2.00;;;;;14.43;60.55;99686.69;5021989;28;45491;-85
2021/12/01 12:49:42;;;;;;;;;5.33;2.00;;;;;14.41;61.25;99688.63;5036093;28;45412;-86
2021/12/01 12:52:26;;;;;;;;;3.00;3.00;;;;;14.35;60.40;99690.81;5024611;28;45405;-86
2021/12/01 12:55:20;;;;;;;;;1.33;1.33;;;;;14.08;60.82;99652.69;5017555;28;45472;-86
2021/12/01 12:57:50;;;;;;;;;3.00;2.00;;;;;14.17;60.19;99664.56;5023127;28;45395;-86
2021/12/01 13:00:20;;;;;;;;;3.00;1.00;;;;;14.30;60.07;99692.94;5016784;28;45565;-87
2021/12/01 13:02:47;;;;;;;;;2.00;2.00;;;;;14.32;60.08;99692.84;5024807;28;45608;-85
2021/12/01 13:05:12;;;;;;;;;2.67;2.00;;;;;14.33;60.02;99695.41;5024520;28;47950;-85
2021/12/01 13:07:48;;;;;;;;;0.67;0.67;;;;;14.30;60.22;99700.16;5028864;28;45324;-86
2021/12/01 13:10:28;;;;;;;;;1.00;1.00;;;;;14.23;60.45;99705.09;5025676;28;45445;-86
2021/12/01 13:13:00;;;;;;;;;2.00;2.00;;;;;14.24;61.78;99714.88;5028541;28;45517;-87
2021/12/01 13:15:33;;;;;;;;;2.00;2.00;;;;;13.75;62.55;99640.03;5023344;28;45464;-88
2021/12/01 13:18:14;;;;;;;;;1.00;1.00;;;;;13.98;61.90;99682.00;5014089;28;45574;-89
2021/12/01 13:20:43;;;;;;;;;2.67;2.00;;;;;13.90;62.38;99674.53;5018802;28;45528;-89
2021/12/01 13:23:22;;;;;;;;;3.00;3.00;;;;;14.03;62.54;99711.97;5019890;28;45442;-87
2021/12/01 13:25:57;;;;;;;;;1.00;1.00;;;;;14.00;62.87;99714.03;5018831;28;47129;-89
2021/12/01 13:28:39;;;;;;;;;2.00;2.00;;;;;13.32;63.18;99603.03;5027512;28;45587;-91
2021/12/01 13:31:06;;;;;;;;;1.00;1.00;;;;;13.98;62.16;99708.81;5036271;28;45478;-91
2021/12/01 13:33:31;;;;;;;;;4.00;1.67;;;;;13.36;62.68;99629.44;5019272;28;45431;-93
2021/12/01 13:35:56;;;;;;;;;3.00;2.00;;;;;13.41;61.67;99631.78;5037058;28;46995;-87
2021/12/01 13:38:35;;;;;;;;;0.33;0.33;;;;;12.91;60.96;99559.56;5037168;28;45411;-94
2021/12/01 13:41:14;;;;;;;;;0.00;0.00;;;;;13.38;61.00;99653.44;5034130;28;45476;-85
2021/12/01 13:43:42;;;;;;;;;2.00;0.33;;;;;12.93;60.76;99597.78;5013241;28;45612;-85
2021/12/01 13:46:08;;;;;;;;;1.00;1.00;;;;;13.72;60.22;99733.00;5019752;28;47113;-84
2021/12/01 13:48:34;;;;;;;;;3.00;1.00;;;;;13.05;60.06;99630.81;5020786;28;45527;-85
2021/12/01 13:51:12;;;;;;;;;0.00;0.00;;;;;13.67;60.36;99736.97;5015671;28;45540;-86
2021/12/01 13:53:40;;;;;;;;;3.00;2.00;;;;;13.43;60.04;99696.78;5020679;28;45628;-85
2021/12/01 13:56:15;;;;;;;;;5.33;3.33;;;;;13.67;60.71;99731.59;5027310;28;45641;-86
2021/12/01 13:58:42;;;;;;;;;2.67;1.33;;;;;13.38;60.06;99702.47;5035701;28;45339;-85
2021/12/01 14:01:14;;;;;;;;;2.00;0.67;;;;;13.43;60.82;99715.50;5018744;28;45507;-86
2021/12/01 14:03:40;;;;;;;;;4.67;1.33;;;;;13.46;60.15;99718.84;5027210;28;45565;-84
2021/12/01 14:06:11;;;;;;;;;15.00;13.33;;;;;13.34;60.38;99716.19;5028701;28;46325;-84
2021/12/01 14:08:39;;;;;;;;;1.67;1.33;;;;;12.95;60.57;99653.84;5030130;28;45451;-85
2021/12/01 14:11:24;;;;;;;;;2.00;2.00;;;;;13.45;61.47;99735.00;5018896;28;45363;-84
2021/12/01 14:14:00;;;;;;;;;1.00;1.00;;;;;13.23;60.70;99717.78;5027962;28;45521;-84
2021/12/01 14:16:28;;;;;;;;;3.00;1.67;;;;;13.43;60.57;99758.34;5027771;28;45417;-84
2021/12/01 14:18:54;;;;;;;;;0.00;0.00;;;;;13.20;60.59;99731.34;5018986;28;45503;-85
2021/12/01 14:21:21;;;;;;;;;1.00;1.00;;;;;12.71;60.83;99657.25;5026074;28;45613;-85
2021/12/01 14:23:50;;;;;;;;;1.00;1.00;;;;;12.44;60.41;99619.94;5021641;28;45506;-85
2021/12/01 14:26:16;;;;;;;;;1.00;1.00;;;;;12.86;60.96;99698.13;5029161;28;46429;-85
2021/12/01 14:28:44;;;;;;;;;2.00;2.00;;;;;13.02;60.72;99730.84;5025345;28;45967;-85
2021/12/01 14:31:10;;;;;;;;;3.00;0.00;;;;;13.06;60.23;99731.47;5023852;28;45474;-86
2021/12/01 14:33:35;;;;;;;;;2.67;0.67;;;;;13.15;60.45;99762.94;5023924;28;45515;-85
2021/12/01 14:36:06;;;;;;;;;5.67;0.67;;;;;12.75;60.55;99698.84;5029331;28;45558;-84
2021/12/01 14:38:33;;;;;;;;;0.00;0.00;;;;;12.51;60.00;99655.97;5022228;28;45404;-83
2021/12/01 14:41:00;;;;;;;;;1.00;1.00;;;;;12.51;60.24;99669.34;5025525;28;45478;-85
2021/12/01 14:43:32;;;;;;;;;1.67;1.67;;;;;12.48;60.63;99660.66;5023309;28;45891;-84
2021/12/01 14:46:13;;;;;;;;;0.67;0.67;;;;;12.50;60.69;99664.09;5019730;28;46612;-85
2021/12/01 14:48:39;;;;;;;;;1.67;1.67;;;;;11.82;60.34;99570.72;5014614;28;45573;-85
2021/12/01 14:51:05;;;;;;;;;6.33;3.00;;;;;12.75;61.09;99720.25;5025908;28;45650;-84
2021/12/01 14:53:36;;;;;;;;;2.67;2.67;;;;;12.98;60.12;99750.75;5023830;28;45532;-84
2021/12/01 14:56:03;;;;;;;;;4.33;3.33;;;;;12.56;60.87;99696.59;5015526;28;46422;-84
2021/12/01 14:58:28;;;;;;;;;4.00;2.67;;;;;12.98;60.26;99771.28;5022455;28;45515;-85
2021/12/01 15:00:59;;;;;;;;;8.33;4.67;;;;;12.65;60.42;99722.69;5029189;28;45393;-85
2021/12/01 15:03:32;;;;;;;;;3.33;3.00;;;;;12.44;60.58;99689.44;5023032;28;45506;-85
2021/12/01 15:05:58;;;;;;;;;3.33;2.67;;;;;13.00;60.70;99774.72;5021708;28;47360;-85
2021/12/01 15:08:23;;;;;;;;;5.33;3.33;;;;;12.99;61.17;99791.72;5014313;28;45552;-85
2021/12/01 15:10:48;;;;;;;;;3.67;3.67;;;;;12.34;61.03;99691.00;5023413;28;45540;-85
2021/12/01 15:13:21;;;;;;;;;3.67;3.67;;;;;12.67;60.87;99754.69;5022425;28;45603;-90
2021/12/01 15:15:59;;;;;;;;;8.00;5.33;;;;;12.85;62.30;99795.34;5021954;28;48093;-87
2021/12/01 15:18:32;;;;;;;;;12.33;12.33;;;;;12.42;60.68;99710.06;5024055;28;45518;-86
2021/12/01 15:20:59;;;;;;;;;5.67;3.33;;;;;12.90;59.27;99790.56;5017413;28;45545;-87
2021/12/01 15:23:27;;;;;;;;;8.33;6.33;;;;;12.53;59.38;99747.59;5018236;28;45382;-91
2021/12/01 15:25:53;;;;;;;;;2.67;2.67;;;;;11.90;60.35;99654.81;5014055;28;48516;-88
2021/12/01 15:29:09;;;;;;;;;6.67;5.33;;;;;12.70;61.49;99789.22;5025343;28;45641;-90
2021/12/01 15:32:13;;;;;;;;;3.33;2.67;;;;;11.47;61.44;99604.22;5018215;28;45680;-87
2021/12/01 15:34:52;;;;;;;;;1.67;1.67;;;;;11.78;61.32;99659.97;4982104;28;45534;-87
2021/12/01 15:37:23;;;;;;;;;4.67;3.33;;;;;12.32;62.43;99751.72;5036213;28;46110;-87
2021/12/01 15:39:51;;;;;;;;;3.33;3.33;;;;;11.45;62.08;99608.81;5022192;28;45577;-87
2021/12/01 15:42:39;;;;;;;;;;;;;;;;;;;;;
2021/12/01 15:45:08;;;;;;;;;6.00;3.67;;;;;12.07;61.14;99733.81;5012774;28;60881;-87
2021/12/01 15:47:42;;;;;;;;;5.33;5.00;;;;;12.43;61.90;99799.94;5018628;28;47241;-89
2021/12/01 15:50:08;;;;;;;;;4.33;4.00;;;;;12.39;61.35;99809.16;5014943;28;46074;-90
2021/12/01 15:52:34;;;;;;;;;5.33;4.00;;;;;11.21;61.87;99620.13;5018609;28;45523;-88
2021/12/01 15:55:00;;;;;;;;;3.00;3.00;;;;;12.26;62.45;99790.38;5019280;28;45509;-91
2021/12/01 15:57:27;;;;;;;;;4.67;3.00;;;;;11.69;61.24;99695.28;5035263;28;48515;-87
2021/12/01 15:59:55;;;;;;;;;10.33;8.33;;;;;12.17;60.43;99777.63;5025832;28;45404;-89
2021/12/01 16:02:21;;;;;;;;;8.00;7.00;;;;;11.74;59.91;99721.66;5015870;28;45459;-84
2021/12/01 16:04:47;;;;;;;;;21.33;18.33;;;;;12.01;60.44;99761.75;5019108;28;45874;-89
2021/12/01 16:07:12;;;;;;;;;38.67;32.00;;;;;11.95;60.34;99756.84;5018300;28;47684;-84
2021/12/01 16:09:38;;;;;;;;;54.25;42.25;;;;;11.69;60.35;99721.13;5018061;28;45623;-86
2021/12/01 16:12:04;;;;;;;;;10.67;8.67;;;;;12.13;60.32;99800.19;5025108;28;45622;-85
2021/12/01 16:14:30;;;;;;;;;12.00;12.00;;;;;11.66;61.03;99724.84;5031902;28;45564;-85
2021/12/01 16:16:56;;;;;;;;;4.33;3.00;;;;;12.15;60.84;99815.16;5024769;28;48205;-84
2021/12/01 16:19:24;;;;;;;;;13.67;12.67;;;;;11.64;61.25;99723.25;5028866;28;45519;-84
2021/12/01 16:21:51;;;;;;;;;6.00;3.00;;;;;11.71;60.89;99749.44;5026939;28;45602;-89
2021/12/01 16:24:16;;;;;;;;;11.00;9.00;;;;;12.13;60.95;99824.22;5028980;28;45622;-85
2021/12/01 16:26:45;;;;;;;;;4.00;2.33;;;;;11.86;61.04;99786.75;5022490;28;45538;-93
2021/12/01 16:29:10;;;;;;;;;4.00;2.00;;;;;11.73;61.03;99774.22;5016527;28;45517;-86
2021/12/01 16:31:36;;;;;;;;;3.00;3.00;;;;;12.02;60.39;99828.44;5017901;28;45503;-85
2021/12/01 16:34:01;;;;;;;;;2.00;2.00;;;;;12.06;60.76;99834.44;5023705;28;45430;-85
2021/12/01 16:36:28;;;;;;;;;5.33;4.00;;;;;11.59;60.97;99763.56;5017938;28;45729;-86
2021/12/01 16:38:58;;;;;;;;;2.33;2.00;;;;;10.99;60.82;99661.47;5019502;28;45539;-93
2021/12/01 16:41:24;;;;;;;;;5.00;3.33;;;;;12.03;61.15;99839.97;5019273;28;45504;-83